Port Augusta, South Australia

11:06 PM ACST on September 21, 2014 (GMT +0930)
Port Augusta East | Change Station
CLOSE
Current Station
Personal Weather Station
Location: Port Augusta, South Australia
Elevation: 33 ft
Nearby Weather Stations

Elev 33 ft 32.51 °S, 137.78 °E | Updated 28 seconds ago

Clear
Clear
54.3 °F
Feels Like 54.3 °F
N
0.0
Wind Variable Wind from SSE
Gusts 0.0 mph

Today
High -- | Low -- °F
--% Chance of Precip.
Yesterday
High -- | Low -- °F
Precip. -- in
6:10 AM 6:14 PM
Waning Crescent, 7% visible
Pressure 30.27 in
Visibility 6.2 miles
Clouds
Dew Point 32 °F
Humidity 43%
Rainfall 0.00 in
Snow Depth Not available.
UV 0.0 out of 12
Pollen Not available.
Air Quality Not available.
Flu Activity Not available.
METAR YWHA 211300Z AUTO 00000KT 9999 // NCD 10/05 Q1025

More Conditions Fewer Conditions

Pressure 30.27 in
Visibility 6.2 miles
Clouds
Dew Point 32 °F
Humidity 43%
Rainfall 0.00 in
Snow Depth Not available.
UV 0.0 out of 12
Pollen Not available.
Air Quality Not available.
Flu Activity Not available.
METAR YWHA 211300Z AUTO 00000KT 9999 // NCD 10/05 Q1025

More Conditions Fewer Conditions

10-Day Weather Forecast

Almanac

Astronomy

Sep. 21, 2014 Rise Set
Actual Time 6:10 AM ACST 6:14 PM ACST
Civil Twilight 5:46 AM ACST 6:38 PM ACST
Nautical Twilight 5:17 AM ACST 7:07 PM ACST
Astronomical Twilight 4:48 AM ACST 7:36 PM ACST
Moon 4:10 AM ACST 3:38 PM ACST
Length of Visible Light 12h 52m
Length of Day
12h 03m
Tomorrow will be 1m 58s longer.
Waning Crescent, 7% of the Moon is Illuminated
Today
Waning Crescent
Sep 24
New
Oct 1
First Quarter
Oct 8
Full
Oct 15
Last Quarter

Yesterday's Extremes

Country Highs Country Lows

Community

WunderPhotos

Upload Photos

1,755,140 photos uploaded!

Nearby

Snow Depth

Not available.

Earthquake Activity

City Distance Mag. Time & Date
No recent earthquake activity has been reported nearby.
Minimum magnitude displayed is 2.5.

Coastal Water Temperatures

Place Temperature
No Stations Reporting

Nearby Weather Stations